Time;durP1;ratioP1;P1;durP2;ratioP2;P2;SDS_P1;SDS_P2;PMS_P1;PMS_P2;Temp;Humidity;BMP_temperature;BMP_pressure;BME280_temperature;BME280_humidity;BME280_pressure;Samples;Min_cycle;Max_cycle;Signal;HPM_P1;HPM_P2
2024/01/28 00:00:11;;;;;;;;;;;16.90;51.10;;;;;;7400068;19;1042;-63
2024/01/28 00:02:37;;;;;;;;;;;16.90;51.10;;;;;;7401904;19;1436;-63
2024/01/28 00:05:02;;;;;;;;;;;16.90;51.10;;;;;;7398903;19;1563;-64
2024/01/28 00:07:28;;;;;;;;;;;16.90;51.10;;;;;;7397877;19;1868;-63
2024/01/28 00:09:53;;;;;;;;;;;16.90;51.20;;;;;;7396030;19;1042;-64
2024/01/28 00:12:18;;;;;;;;;;;16.90;51.20;;;;;;7394529;19;1269;-63
2024/01/28 00:14:44;;;;;;;;;;;16.90;51.20;;;;;;7396570;19;1386;-63
2024/01/28 00:17:09;;;;;;;;;;;16.80;51.20;;;;;;7397345;19;1633;-63
2024/01/28 00:19:35;;;;;;;;;;;16.80;51.20;;;;;;7398002;19;2711;-63
2024/01/28 00:22:00;;;;;;;;;;;16.80;51.30;;;;;;7394227;19;1094;-63
2024/01/28 00:24:27;;;;;;;;;;;16.80;51.50;;;;;;7399639;19;1656;-63
2024/01/28 00:26:53;;;;;;;;;;;16.80;51.50;;;;;;7394916;19;1829;-63
2024/01/28 00:29:20;;;;;;;;;;;16.70;51.50;;;;;;7400119;19;1520;-63
2024/01/28 00:31:46;;;;;;;;;;;16.70;51.60;;;;;;7397014;19;886;-62
2024/01/28 00:34:12;;;;;;;;;;;16.70;51.60;;;;;;7397814;19;1500;-63
2024/01/28 00:36:38;;;;;;;;;;;16.70;51.60;;;;;;7394912;19;2114;-63
2024/01/28 00:39:03;;;;;;;;;;;16.70;51.80;;;;;;7394822;19;1118;-63
2024/01/28 00:41:29;;;;;;;;;;;16.60;51.70;;;;;;7395834;19;1041;-63
2024/01/28 00:43:55;;;;;;;;;;;16.60;51.60;;;;;;7396604;19;776;-63
2024/01/28 00:46:22;;;;;;;;;;;16.60;51.90;;;;;;7396364;19;1445;-63
2024/01/28 00:48:47;;;;;;;;;;;16.60;52.00;;;;;;7393843;19;1849;-63
2024/01/28 00:51:13;;;;;;;;;;;16.50;51.80;;;;;;7394909;19;855;-63
2024/01/28 00:53:38;;;;;;;;;;;16.50;51.90;;;;;;7396759;19;1034;-63
2024/01/28 00:56:04;;;;;;;;;;;16.50;52.00;;;;;;7393713;19;1604;-63
2024/01/28 00:58:29;;;;;;;;;;;16.50;52.00;;;;;;7394244;19;1012;-63
2024/01/28 01:00:55;;;;;;;;;;;16.50;52.20;;;;;;7395441;19;1113;-63
2024/01/28 01:03:20;;;;;;;;;;;16.50;52.00;;;;;;7396076;19;1516;-63
2024/01/28 01:05:46;;;;;;;;;;;16.50;52.00;;;;;;7392518;19;840;-63
2024/01/28 01:08:11;;;;;;;;;;;16.40;52.00;;;;;;7396334;19;1845;-64
2024/01/28 01:10:37;;;;;;;;;;;16.40;52.00;;;;;;7392388;19;1345;-63
2024/01/28 01:13:02;;;;;;;;;;;16.40;52.00;;;;;;7397483;19;1193;-63
2024/01/28 01:15:29;;;;;;;;;;;16.40;52.00;;;;;;7397062;19;1577;-63
2024/01/28 01:17:58;;;;;;;;;;;16.40;52.00;;;;;;7396298;19;1503;-63
2024/01/28 01:20:23;;;;;;;;;;;16.40;52.00;;;;;;7396845;19;1663;-65
2024/01/28 01:22:49;;;;;;;;;;;16.40;52.00;;;;;;7392914;19;1100;-64
2024/01/28 01:25:14;;;;;;;;;;;16.30;51.90;;;;;;7392201;19;907;-65
2024/01/28 01:27:40;;;;;;;;;;;16.30;52.10;;;;;;7394341;19;1849;-63
2024/01/28 01:30:06;;;;;;;;;;;16.30;51.90;;;;;;7396835;19;1569;-63
2024/01/28 01:32:32;;;;;;;;;;;16.30;52.00;;;;;;7395617;19;1409;-63
2024/01/28 01:34:57;;;;;;;;;;;16.30;52.00;;;;;;7394539;19;1490;-63
2024/01/28 01:37:22;;;;;;;;;;;16.30;52.00;;;;;;7396806;19;1755;-63
2024/01/28 01:39:48;;;;;;;;;;;16.20;52.10;;;;;;7391594;19;1124;-63
2024/01/28 01:42:13;;;;;;;;;;;16.20;52.10;;;;;;7392242;19;878;-63
2024/01/28 01:44:39;;;;;;;;;;;16.20;52.30;;;;;;7391993;19;1073;-63
2024/01/28 01:47:04;;;;;;;;;;;16.20;52.10;;;;;;7392508;19;1854;-63
2024/01/28 01:49:30;;;;;;;;;;;16.20;52.20;;;;;;7395021;19;1738;-63
2024/01/28 01:51:55;;;;;;;;;;;16.10;52.00;;;;;;7390769;19;911;-64
2024/01/28 01:54:21;;;;;;;;;;;16.20;52.20;;;;;;7392009;19;776;-64
2024/01/28 01:56:46;;;;;;;;;;;16.10;52.10;;;;;;7392739;19;1685;-64
2024/01/28 01:59:12;;;;;;;;;;;16.10;52.10;;;;;;7392933;19;1827;-63
2024/01/28 02:01:38;;;;;;;;;;;16.10;52.10;;;;;;7394142;19;832;-63
2024/01/28 02:04:03;;;;;;;;;;;16.10;52.00;;;;;;7396925;19;1597;-63
2024/01/28 02:06:29;;;;;;;;;;;16.10;52.10;;;;;;7390615;19;1019;-63
2024/01/28 02:08:54;;;;;;;;;;;16.10;52.30;;;;;;7393467;19;1863;-63
2024/01/28 02:11:20;;;;;;;;;;;16.10;52.00;;;;;;7390981;19;1641;-63
2024/01/28 02:13:46;;;;;;;;;;;16.10;51.90;;;;;;7396039;19;1528;-63
2024/01/28 02:16:11;;;;;;;;;;;16.20;51.80;;;;;;7401569;19;2082;-63
2024/01/28 02:18:37;;;;;;;;;;;16.30;51.90;;;;;;7400721;19;1563;-63
2024/01/28 02:21:02;;;;;;;;;;;16.40;51.40;;;;;;7403037;19;1786;-63
2024/01/28 02:23:28;;;;;;;;;;;16.60;51.40;;;;;;7402488;19;1547;-63
2024/01/28 02:25:53;;;;;;;;;;;16.80;51.10;;;;;;7397639;19;955;-63
2024/01/28 02:28:21;;;;;;;;;;;17.20;50.50;;;;;;7396363;19;1884;-63
2024/01/28 02:30:46;;;;;;;;;;;17.50;49.80;;;;;;7400763;19;1806;-63
2024/01/28 02:33:12;;;;;;;;;;;17.90;49.20;;;;;;7398059;19;1629;-63
2024/01/28 02:35:37;;;;;;;;;;;18.20;48.40;;;;;;7400241;19;1580;-63
2024/01/28 02:38:03;;;;;;;;;;;18.50;48.10;;;;;;7403624;19;1727;-63
2024/01/28 02:40:28;;;;;;;;;;;18.70;47.50;;;;;;7398118;19;741;-63
2024/01/28 02:42:54;;;;;;;;;;;18.90;47.10;;;;;;7397770;19;888;-63
2024/01/28 02:45:19;;;;;;;;;;;19.10;46.90;;;;;;7397511;19;867;-63
2024/01/28 02:47:45;;;;;;;;;;;19.20;46.60;;;;;;7399611;19;1861;-63
2024/01/28 02:50:10;;;;;;;;;;;19.20;46.50;;;;;;7398682;19;1690;-63
2024/01/28 02:52:35;;;;;;;;;;;19.10;46.40;;;;;;7397720;19;923;-63
2024/01/28 02:55:01;;;;;;;;;;;19.00;46.50;;;;;;7398478;19;1006;-63
2024/01/28 02:57:26;;;;;;;;;;;19.00;46.80;;;;;;7401670;19;1524;-63
2024/01/28 02:59:52;;;;;;;;;;;18.90;46.80;;;;;;7396745;19;1161;-63
2024/01/28 03:02:17;;;;;;;;;;;18.80;46.80;;;;;;7401073;19;1545;-64
2024/01/28 03:04:43;;;;;;;;;;;18.70;47.00;;;;;;7400230;19;1675;-63
2024/01/28 03:07:08;;;;;;;;;;;18.60;47.00;;;;;;7396505;19;1847;-63
2024/01/28 03:09:33;;;;;;;;;;;18.60;47.00;;;;;;7398756;19;1565;-63
2024/01/28 03:11:59;;;;;;;;;;;18.60;47.30;;;;;;7396825;19;1903;-63
2024/01/28 03:14:26;;;;;;;;;;;18.50;47.40;;;;;;7399135;19;1554;-63
2024/01/28 03:16:51;;;;;;;;;;;18.40;47.40;;;;;;7396418;19;1301;-63
2024/01/28 03:19:16;;;;;;;;;;;18.40;47.50;;;;;;7400245;19;1550;-63
2024/01/28 03:21:42;;;;;;;;;;;18.30;47.40;;;;;;7394833;19;1081;-63
2024/01/28 03:24:07;;;;;;;;;;;18.30;47.60;;;;;;7398947;19;1526;-63
2024/01/28 03:26:34;;;;;;;;;;;18.20;47.70;;;;;;7395514;19;994;-63
2024/01/28 03:29:00;;;;;;;;;;;18.20;48.00;;;;;;7394493;19;1865;-63
2024/01/28 03:31:25;;;;;;;;;;;18.00;48.00;;;;;;7397734;19;788;-63
2024/01/28 03:33:50;;;;;;;;;;;18.00;48.20;;;;;;7396064;19;1494;-64
2024/01/28 03:36:16;;;;;;;;;;;17.90;48.10;;;;;;7398395;19;1759;-63
2024/01/28 03:38:41;;;;;;;;;;;17.90;48.30;;;;;;7396207;19;1518;-63
2024/01/28 03:41:07;;;;;;;;;;;17.80;48.30;;;;;;7401391;19;1757;-63
2024/01/28 03:43:32;;;;;;;;;;;17.80;48.40;;;;;;7395392;19;1081;-63
2024/01/28 03:45:58;;;;;;;;;;;17.80;48.40;;;;;;7397710;19;1609;-64
2024/01/28 03:48:23;;;;;;;;;;;17.70;48.50;;;;;;7397203;19;1845;-63
2024/01/28 03:50:49;;;;;;;;;;;17.70;48.60;;;;;;7399242;19;1642;-63
2024/01/28 03:53:14;;;;;;;;;;;17.60;48.60;;;;;;7395415;19;840;-63
2024/01/28 03:55:40;;;;;;;;;;;17.70;48.60;;;;;;7394767;19;879;-63
2024/01/28 03:58:05;;;;;;;;;;;17.70;48.40;;;;;;7397292;19;1422;-64
2024/01/28 04:00:30;;;;;;;;;;;17.80;48.50;;;;;;7393548;19;1874;-64
2024/01/28 04:03:01;;;;;;;;;;;17.80;48.20;;;;;;7398507;19;1516;-63
2024/01/28 04:05:26;;;;;;;;;;;17.90;49.10;;;;;;7398422;19;1668;-63
2024/01/28 04:07:52;;;;;;;;;;;17.80;48.30;;;;;;7395588;19;1861;-63
2024/01/28 04:10:17;;;;;;;;;;;17.80;48.30;;;;;;7398016;19;1650;-63
2024/01/28 04:12:43;;;;;;;;;;;17.80;48.20;;;;;;7396994;19;1587;-63
2024/01/28 04:15:08;;;;;;;;;;;17.80;48.20;;;;;;7395450;19;1707;-63
2024/01/28 04:17:34;;;;;;;;;;;17.90;48.20;;;;;;7394123;19;841;-63
2024/01/28 04:19:59;;;;;;;;;;;17.90;48.40;;;;;;7396652;19;1608;-63
2024/01/28 04:22:26;;;;;;;;;;;17.90;48.00;;;;;;7396084;19;1009;-63
2024/01/28 04:24:51;;;;;;;;;;;18.00;48.00;;;;;;7394156;19;796;-63
2024/01/28 04:27:17;;;;;;;;;;;18.00;48.20;;;;;;7393651;19;1849;-63
2024/01/28 04:29:42;;;;;;;;;;;18.00;48.00;;;;;;7398040;19;1753;-63
2024/01/28 04:32:10;;;;;;;;;;;18.00;48.00;;;;;;7398437;19;835;-63
2024/01/28 04:34:35;;;;;;;;;;;18.00;47.80;;;;;;7393265;19;1533;-63
2024/01/28 04:37:01;;;;;;;;;;;18.10;47.90;;;;;;7392695;19;871;-63
2024/01/28 04:39:26;;;;;;;;;;;18.00;47.90;;;;;;7394502;19;1592;-63
2024/01/28 04:41:52;;;;;;;;;;;18.00;47.90;;;;;;7395091;19;983;-63
2024/01/28 04:44:18;;;;;;;;;;;17.90;47.80;;;;;;7394059;19;1056;-63
2024/01/28 04:46:45;;;;;;;;;;;17.90;48.00;;;;;;7395192;19;913;-63
2024/01/28 04:49:10;;;;;;;;;;;17.90;47.90;;;;;;7394684;19;1848;-63
2024/01/28 04:51:36;;;;;;;;;;;17.90;48.00;;;;;;7392072;19;812;-63
2024/01/28 04:54:02;;;;;;;;;;;17.90;48.00;;;;;;7395000;19;819;-63
2024/01/28 04:56:27;;;;;;;;;;;17.90;47.90;;;;;;7392668;19;871;-63
2024/01/28 04:58:52;;;;;;;;;;;18.00;47.70;;;;;;7393778;19;1455;-63
2024/01/28 05:01:18;;;;;;;;;;;18.00;47.70;;;;;;7392358;19;3346;-63
2024/01/28 05:03:43;;;;;;;;;;;18.00;47.80;;;;;;7394510;19;1676;-64
2024/01/28 05:06:09;;;;;;;;;;;17.90;47.70;;;;;;7391907;19;1175;-63
2024/01/28 05:08:35;;;;;;;;;;;18.00;47.80;;;;;;7393533;19;1846;-63
2024/01/28 05:11:00;;;;;;;;;;;18.00;47.80;;;;;;7393414;19;1298;-63
2024/01/28 05:13:26;;;;;;;;;;;18.00;47.70;;;;;;7394129;19;1060;-63
2024/01/28 05:15:51;;;;;;;;;;;17.90;47.70;;;;;;7396730;19;1674;-63
2024/01/28 05:18:16;;;;;;;;;;;17.90;47.80;;;;;;7393055;19;1642;-63
2024/01/28 05:20:42;;;;;;;;;;;17.80;47.80;;;;;;7391723;19;1562;-63
2024/01/28 05:23:08;;;;;;;;;;;17.80;48.00;;;;;;7396339;19;1851;-63
2024/01/28 05:25:33;;;;;;;;;;;17.80;48.10;;;;;;7393215;19;772;-63
2024/01/28 05:27:59;;;;;;;;;;;17.80;47.90;;;;;;7392824;19;1842;-63
2024/01/28 05:30:24;;;;;;;;;;;17.80;47.80;;;;;;7391539;19;800;-63
2024/01/28 05:32:50;;;;;;;;;;;17.90;47.80;;;;;;7395561;19;1436;-63
2024/01/28 05:35:15;;;;;;;;;;;17.90;47.80;;;;;;7390426;19;1162;-63
2024/01/28 05:37:41;;;;;;;;;;;17.90;47.60;;;;;;7392902;19;1094;-63
2024/01/28 05:40:08;;;;;;;;;;;17.90;47.60;;;;;;7391250;19;959;-63
2024/01/28 05:42:33;;;;;;;;;;;17.90;47.50;;;;;;7391966;19;1525;-63
2024/01/28 05:44:59;;;;;;;;;;;17.90;47.50;;;;;;7391397;19;950;-63
2024/01/28 05:47:24;;;;;;;;;;;18.00;47.60;;;;;;7391482;19;1852;-63
2024/01/28 05:49:50;;;;;;;;;;;18.00;47.40;;;;;;7394455;19;1603;-63
2024/01/28 05:52:15;;;;;;;;;;;17.90;47.40;;;;;;7393066;19;915;-63
2024/01/28 05:54:44;;;;;;;;;;;17.90;47.40;;;;;;7396958;19;1525;-63
2024/01/28 05:57:09;;;;;;;;;;;17.90;47.60;;;;;;7391405;19;819;-63
2024/01/28 05:59:35;;;;;;;;;;;17.90;47.70;;;;;;7391314;19;867;-63
2024/01/28 06:02:01;;;;;;;;;;;17.90;47.70;;;;;;7390937;19;1884;-64
2024/01/28 06:04:26;;;;;;;;;;;17.80;47.60;;;;;;7397172;19;1404;-63
2024/01/28 06:06:51;;;;;;;;;;;17.80;47.90;;;;;;7391532;19;884;-63
2024/01/28 06:09:18;;;;;;;;;;;17.80;47.80;;;;;;7389147;19;1862;-63
2024/01/28 06:11:43;;;;;;;;;;;17.70;47.80;;;;;;7390695;19;2128;-63
2024/01/28 06:14:09;;;;;;;;;;;17.70;47.80;;;;;;7391307;19;1131;-63
2024/01/28 06:16:35;;;;;;;;;;;17.70;47.70;;;;;;7394562;19;1557;-64
2024/01/28 06:19:00;;;;;;;;;;;17.80;47.80;;;;;;7392935;19;1458;-63
2024/01/28 06:21:25;;;;;;;;;;;17.70;47.90;;;;;;7389254;19;892;-64
2024/01/28 06:23:51;;;;;;;;;;;17.60;47.80;;;;;;7394347;19;1522;-63
2024/01/28 06:26:18;;;;;;;;;;;17.70;47.80;;;;;;7390333;19;896;-63
2024/01/28 06:28:46;;;;;;;;;;;17.70;47.60;;;;;;7389041;19;1849;-63
2024/01/28 06:31:12;;;;;;;;;;;17.70;47.50;;;;;;7393780;19;1639;-64
2024/01/28 06:33:38;;;;;;;;;;;17.80;47.40;;;;;;7393272;19;1569;-64
2024/01/28 06:36:03;;;;;;;;;;;17.90;47.40;;;;;;7390872;19;1766;-64
2024/01/28 06:38:30;;;;;;;;;;;17.90;47.30;;;;;;7392761;19;1553;-63
2024/01/28 06:40:59;;;;;;;;;;;17.90;47.40;;;;;;7392989;19;1646;-64
2024/01/28 06:43:27;;;;;;;;;;;17.80;47.40;;;;;;7390032;19;927;-64
2024/01/28 06:45:53;;;;;;;;;;;17.80;47.50;;;;;;7389985;19;748;-63
2024/01/28 06:48:18;;;;;;;;;;;17.70;47.30;;;;;;7393209;19;1858;-64
2024/01/28 06:50:44;;;;;;;;;;;17.70;47.40;;;;;;7389887;19;1590;-63
2024/01/28 06:53:10;;;;;;;;;;;17.70;47.40;;;;;;7389982;19;839;-63
2024/01/28 06:55:35;;;;;;;;;;;17.70;47.40;;;;;;7389742;19;821;-63
2024/01/28 06:58:01;;;;;;;;;;;17.70;47.50;;;;;;7390066;19;827;-63
2024/01/28 07:00:26;;;;;;;;;;;17.70;47.30;;;;;;7393699;19;1520;-63
2024/01/28 07:02:53;;;;;;;;;;;17.70;47.20;;;;;;7399624;19;2665;-63
2024/01/28 07:05:22;;;;;;;;;;;17.80;47.20;;;;;;7398994;19;1502;-63
2024/01/28 07:07:48;;;;;;;;;;;17.90;47.10;;;;;;7400246;19;1841;-63
2024/01/28 07:10:13;;;;;;;;;;;17.90;47.00;;;;;;7396252;19;1529;-64
2024/01/28 07:12:38;;;;;;;;;;;17.90;46.80;;;;;;7396558;19;1659;-63
2024/01/28 07:15:05;;;;;;;;;;;17.90;46.80;;;;;;7398256;19;1704;-63
2024/01/28 07:17:31;;;;;;;;;;;17.90;46.70;;;;;;7400440;19;1753;-63
2024/01/28 07:19:56;;;;;;;;;;;17.90;46.80;;;;;;7397079;19;1434;-64
2024/01/28 07:22:22;;;;;;;;;;;17.90;46.90;;;;;;7398382;19;1069;-63
2024/01/28 07:24:48;;;;;;;;;;;17.90;46.80;;;;;;7397874;19;1763;-63
2024/01/28 07:27:13;;;;;;;;;;;17.90;46.80;;;;;;7395700;19;1849;-63
2024/01/28 07:29:39;;;;;;;;;;;17.80;46.70;;;;;;7393143;19;3339;-64
2024/01/28 07:32:04;;;;;;;;;;;17.90;46.90;;;;;;7398818;19;1523;-63
2024/01/28 07:34:30;;;;;;;;;;;17.80;46.70;;;;;;7399314;19;1436;-63
2024/01/28 07:36:57;;;;;;;;;;;17.80;46.90;;;;;;7394257;19;1105;-63
2024/01/28 07:39:22;;;;;;;;;;;17.70;46.90;;;;;;7397090;19;1535;-64
2024/01/28 07:41:48;;;;;;;;;;;17.70;47.10;;;;;;7397832;19;1595;-64
2024/01/28 07:44:13;;;;;;;;;;;17.70;47.20;;;;;;7400909;19;1245;-63
2024/01/28 07:46:39;;;;;;;;;;;17.70;47.10;;;;;;7395676;19;1586;-63
2024/01/28 07:49:04;;;;;;;;;;;17.70;47.00;;;;;;7393952;19;1854;-63
2024/01/28 07:51:30;;;;;;;;;;;17.80;47.00;;;;;;7400237;19;1583;-63
2024/01/28 07:53:55;;;;;;;;;;;17.80;47.00;;;;;;7395383;19;1748;-63
2024/01/28 07:56:20;;;;;;;;;;;17.80;47.00;;;;;;7397865;19;1354;-63
2024/01/28 07:58:46;;;;;;;;;;;17.90;47.20;;;;;;7395271;19;804;-63
2024/01/28 08:01:11;;;;;;;;;;;17.80;47.30;;;;;;7398642;19;1535;-63
2024/01/28 08:03:37;;;;;;;;;;;17.70;47.20;;;;;;7392834;19;2538;-63
2024/01/28 08:06:04;;;;;;;;;;;17.70;47.50;;;;;;7396095;19;1627;-63
2024/01/28 08:08:30;;;;;;;;;;;17.70;47.50;;;;;;7394990;19;1842;-63
2024/01/28 08:10:55;;;;;;;;;;;17.70;47.50;;;;;;7393254;19;1364;-63
2024/01/28 08:13:22;;;;;;;;;;;17.70;47.40;;;;;;7395371;19;962;-63
2024/01/28 08:15:48;;;;;;;;;;;17.70;47.40;;;;;;7397425;19;1495;-63
2024/01/28 08:18:13;;;;;;;;;;;17.80;47.30;;;;;;7398377;19;1754;-64
2024/01/28 08:20:39;;;;;;;;;;;17.80;47.30;;;;;;7394951;19;1726;-63
2024/01/28 08:23:04;;;;;;;;;;;17.80;47.30;;;;;;7395808;19;1457;-63
2024/01/28 08:25:29;;;;;;;;;;;17.80;47.40;;;;;;7395636;19;1480;-63
2024/01/28 08:27:56;;;;;;;;;;;17.80;47.40;;;;;;7394297;19;1860;-63
2024/01/28 08:30:23;;;;;;;;;;;17.90;47.40;;;;;;7393552;19;1568;-63
2024/01/28 08:32:49;;;;;;;;;;;17.90;47.40;;;;;;7398084;19;1541;-63
2024/01/28 08:35:14;;;;;;;;;;;17.90;47.40;;;;;;7395947;19;1515;-63
2024/01/28 08:37:40;;;;;;;;;;;17.80;47.30;;;;;;7393671;19;1547;-63
2024/01/28 08:40:07;;;;;;;;;;;17.80;47.40;;;;;;7393357;19;623;-63
2024/01/28 08:42:34;;;;;;;;;;;17.80;47.40;;;;;;7397424;19;1526;-63
2024/01/28 08:44:59;;;;;;;;;;;17.80;47.40;;;;;;7393036;19;1334;-63
2024/01/28 08:47:25;;;;;;;;;;;17.80;48.10;;;;;;7396560;19;1854;-64
2024/01/28 08:49:50;;;;;;;;;;;17.80;47.90;;;;;;7395021;19;1537;-64
2024/01/28 08:52:16;;;;;;;;;;;17.80;47.50;;;;;;7393336;19;1450;-63
2024/01/28 08:54:45;;;;;;;;;;;17.80;48.10;;;;;;7395627;19;1639;-63
2024/01/28 08:57:11;;;;;;;;;;;17.80;47.50;;;;;;7393012;19;808;-63
2024/01/28 08:59:37;;;;;;;;;;;17.80;47.50;;;;;;7394463;19;828;-63
2024/01/28 09:02:02;;;;;;;;;;;17.80;47.50;;;;;;7395473;19;1519;-63
2024/01/28 09:04:28;;;;;;;;;;;17.80;47.60;;;;;;7393706;19;2733;-63
2024/01/28 09:06:54;;;;;;;;;;;17.70;47.70;;;;;;7391072;19;1218;-63
2024/01/28 09:09:19;;;;;;;;;;;17.70;47.80;;;;;;7391708;19;1842;-63
2024/01/28 09:11:45;;;;;;;;;;;17.70;47.70;;;;;;7394143;19;1669;-63
2024/01/28 09:14:10;;;;;;;;;;;17.80;47.80;;;;;;7393918;19;875;-63
2024/01/28 09:16:35;;;;;;;;;;;17.80;47.70;;;;;;7398821;19;1430;-63
2024/01/28 09:19:03;;;;;;;;;;;17.80;47.70;;;;;;7394984;19;1509;-63
2024/01/28 09:21:29;;;;;;;;;;;17.90;47.70;;;;;;7390560;19;1534;-63
2024/01/28 09:23:55;;;;;;;;;;;17.90;47.70;;;;;;7392025;19;1631;-63
2024/01/28 09:26:20;;;;;;;;;;;18.00;47.70;;;;;;7396988;19;1586;-63
2024/01/28 09:28:46;;;;;;;;;;;18.00;47.70;;;;;;7392035;19;1880;-63
2024/01/28 09:31:11;;;;;;;;;;;18.00;47.80;;;;;;7395255;19;1441;-63
2024/01/28 09:33:37;;;;;;;;;;;18.00;47.70;;;;;;7394535;19;1556;-63
2024/01/28 09:36:02;;;;;;;;;;;18.00;47.90;;;;;;7391072;19;1658;-63
2024/01/28 09:38:28;;;;;;;;;;;18.10;48.10;;;;;;7394127;19;1595;-63
2024/01/28 09:40:53;;;;;;;;;;;18.10;47.90;;;;;;7392145;19;1646;-63
2024/01/28 09:43:19;;;;;;;;;;;18.10;48.10;;;;;;7393356;19;1719;-63
2024/01/28 09:45:44;;;;;;;;;;;18.10;48.10;;;;;;7395229;19;1459;-63
2024/01/28 09:48:10;;;;;;;;;;;18.00;48.00;;;;;;7394617;19;1849;-63
2024/01/28 09:50:36;;;;;;;;;;;18.10;48.00;;;;;;7392105;19;1678;-63
2024/01/28 09:53:01;;;;;;;;;;;18.10;48.80;;;;;;7396295;19;1751;-63
2024/01/28 09:55:27;;;;;;;;;;;18.10;48.20;;;;;;7394683;19;1504;-63
2024/01/28 09:57:52;;;;;;;;;;;18.00;48.10;;;;;;7394925;19;1445;-63
2024/01/28 10:00:18;;;;;;;;;;;18.00;48.00;;;;;;7396378;19;1733;-63
2024/01/28 10:02:43;;;;;;;;;;;18.00;48.10;;;;;;7394152;19;1665;-63
2024/01/28 10:05:10;;;;;;;;;;;18.00;48.30;;;;;;7390337;19;2704;-63
2024/01/28 10:07:43;;;;;;;;;;;18.00;48.20;;;;;;7391116;19;1860;-63
2024/01/28 10:10:08;;;;;;;;;;;18.00;48.20;;;;;;7396026;19;1590;-63
2024/01/28 10:12:34;;;;;;;;;;;18.00;48.30;;;;;;7391327;19;1367;-63
2024/01/28 10:14:59;;;;;;;;;;;18.00;48.10;;;;;;7395011;19;1441;-63
2024/01/28 10:17:24;;;;;;;;;;;18.10;48.20;;;;;;7393862;19;1439;-63
2024/01/28 10:19:50;;;;;;;;;;;18.10;48.10;;;;;;7394541;19;1348;-64
2024/01/28 10:22:15;;;;;;;;;;;18.20;48.00;;;;;;7391269;19;1452;-63
2024/01/28 10:24:44;;;;;;;;;;;18.20;48.10;;;;;;7395769;19;1643;-63
2024/01/28 10:27:09;;;;;;;;;;;18.20;47.90;;;;;;7395346;19;1845;-63
2024/01/28 10:29:36;;;;;;;;;;;18.20;47.90;;;;;;7394250;19;1682;-63
2024/01/28 10:32:01;;;;;;;;;;;18.20;47.90;;;;;;7394163;19;1217;-63
2024/01/28 10:34:27;;;;;;;;;;;18.30;48.00;;;;;;7392422;19;1514;-63
2024/01/28 10:36:53;;;;;;;;;;;18.30;48.00;;;;;;7402255;19;1584;-63
2024/01/28 10:39:18;;;;;;;;;;;18.30;47.90;;;;;;7396970;19;1704;-63
2024/01/28 10:41:44;;;;;;;;;;;18.30;47.80;;;;;;7402537;19;1440;-63
2024/01/28 10:44:10;;;;;;;;;;;18.30;47.70;;;;;;7398359;19;1556;-63
2024/01/28 10:46:37;;;;;;;;;;;18.30;47.70;;;;;;7397769;19;1428;-64
2024/01/28 10:49:04;;;;;;;;;;;18.30;47.80;;;;;;7395278;19;1854;-63
2024/01/28 10:51:29;;;;;;;;;;;18.30;47.80;;;;;;7400392;19;1701;-63
2024/01/28 10:53:55;;;;;;;;;;;18.30;47.80;;;;;;7397975;19;878;-63
2024/01/28 10:56:20;;;;;;;;;;;18.30;47.70;;;;;;7397509;19;1515;-63
2024/01/28 10:58:46;;;;;;;;;;;18.30;47.80;;;;;;7397500;19;1003;-63
2024/01/28 11:01:12;;;;;;;;;;;18.30;47.80;;;;;;7399380;19;1552;-63
2024/01/28 11:03:38;;;;;;;;;;;18.30;47.70;;;;;;7401004;19;1666;-63
2024/01/28 11:06:03;;;;;;;;;;;18.40;47.80;;;;;;7395484;19;2870;-63
2024/01/28 11:08:29;;;;;;;;;;;18.40;47.90;;;;;;7398618;19;1850;-63
2024/01/28 11:10:54;;;;;;;;;;;18.40;47.90;;;;;;7399564;19;1508;-63
2024/01/28 11:13:20;;;;;;;;;;;18.40;47.90;;;;;;7398470;19;1454;-63
2024/01/28 11:15:45;;;;;;;;;;;18.40;47.90;;;;;;7397996;19;1480;-63
2024/01/28 11:18:11;;;;;;;;;;;18.40;47.90;;;;;;7398503;19;1444;-63
2024/01/28 11:20:36;;;;;;;;;;;18.40;48.00;;;;;;7395015;19;833;-63
2024/01/28 11:23:04;;;;;;;;;;;18.40;48.00;;;;;;7398857;19;1512;-63
2024/01/28 11:25:30;;;;;;;;;;;18.40;47.90;;;;;;7395463;19;852;-63
2024/01/28 11:28:01;;;;;;;;;;;18.40;48.10;;;;;;7399207;19;1860;-63
2024/01/28 11:30:27;;;;;;;;;;;18.40;48.10;;;;;;7395757;19;1662;-63
2024/01/28 11:32:55;;;;;;;;;;;18.40;48.00;;;;;;7398299;19;1354;-63
2024/01/28 11:35:23;;;;;;;;;;;18.40;48.10;;;;;;7396198;19;1277;-63
2024/01/28 11:37:48;;;;;;;;;;;18.50;48.00;;;;;;7397266;19;1194;-64
2024/01/28 11:40:19;;;;;;;;;;;18.50;48.00;;;;;;7399352;19;1284;-63
2024/01/28 11:42:44;;;;;;;;;;;18.50;48.00;;;;;;7398439;19;1191;-63
2024/01/28 11:45:09;;;;;;;;;;;18.50;48.10;;;;;;7396671;19;1295;-63
2024/01/28 11:47:35;;;;;;;;;;;18.50;48.70;;;;;;7396019;19;1866;-63
2024/01/28 11:50:01;;;;;;;;;;;18.50;48.00;;;;;;7397282;19;1287;-63
2024/01/28 11:52:28;;;;;;;;;;;18.60;48.10;;;;;;7399339;19;1341;-63
2024/01/28 11:54:53;;;;;;;;;;;18.60;48.00;;;;;;7397014;19;1183;-63
2024/01/28 11:57:19;;;;;;;;;;;18.60;48.20;;;;;;7397474;19;1207;-64
2024/01/28 11:59:44;;;;;;;;;;;18.60;48.00;;;;;;7397783;19;1277;-64
2024/01/28 12:02:11;;;;;;;;;;;18.70;48.10;;;;;;7396751;19;1541;-64
2024/01/28 12:04:38;;;;;;;;;;;18.60;48.00;;;;;;7396137;19;2162;-63
2024/01/28 12:07:04;;;;;;;;;;;18.70;48.10;;;;;;7393745;19;2279;-63
2024/01/28 12:09:30;;;;;;;;;;;18.60;48.00;;;;;;7395027;19;1857;-63
2024/01/28 12:11:56;;;;;;;;;;;18.70;48.00;;;;;;7396757;19;1525;-63
2024/01/28 12:14:21;;;;;;;;;;;18.70;48.00;;;;;;7398020;19;1456;-63
2024/01/28 12:16:47;;;;;;;;;;;18.70;48.10;;;;;;7398199;19;1543;-63
2024/01/28 12:19:13;;;;;;;;;;;18.70;48.20;;;;;;7397229;19;1435;-64
2024/01/28 12:21:39;;;;;;;;;;;18.60;48.20;;;;;;7397031;19;1253;-63
2024/01/28 12:24:04;;;;;;;;;;;18.60;48.00;;;;;;7396025;19;1414;-63
2024/01/28 12:26:32;;;;;;;;;;;18.60;48.10;;;;;;7397412;19;1249;-63
2024/01/28 12:28:58;;;;;;;;;;;18.60;48.10;;;;;;7396263;19;1841;-63
2024/01/28 12:31:23;;;;;;;;;;;18.60;48.10;;;;;;7394906;19;1335;-63
2024/01/28 12:33:49;;;;;;;;;;;18.60;48.20;;;;;;7396869;19;1175;-63
2024/01/28 12:36:15;;;;;;;;;;;18.60;48.30;;;;;;7394381;19;1056;-63
2024/01/28 12:38:40;;;;;;;;;;;18.60;48.20;;;;;;7396446;19;1297;-63
2024/01/28 12:41:06;;;;;;;;;;;18.60;48.20;;;;;;7395937;19;1198;-63
2024/01/28 12:43:31;;;;;;;;;;;18.60;48.30;;;;;;7396176;19;1321;-63
2024/01/28 12:45:57;;;;;;;;;;;18.60;48.30;;;;;;7396089;19;1602;-63
2024/01/28 12:48:22;;;;;;;;;;;18.60;48.40;;;;;;7394509;19;1853;-63
2024/01/28 12:50:48;;;;;;;;;;;18.60;48.50;;;;;;7391549;19;912;-64
2024/01/28 12:53:13;;;;;;;;;;;18.60;48.30;;;;;;7397642;19;922;-64
2024/01/28 12:55:39;;;;;;;;;;;18.70;48.40;;;;;;7393879;19;1596;-63
2024/01/28 12:58:04;;;;;;;;;;;18.70;48.30;;;;;;7394195;19;1513;-63
2024/01/28 13:00:30;;;;;;;;;;;18.70;48.30;;;;;;7385075;19;2503;-63
2024/01/28 13:02:55;;;;;;;;;;;18.80;48.20;;;;;;7391968;19;2034;-63
2024/01/28 13:05:21;;;;;;;;;;;18.80;48.20;;;;;;7394916;19;1901;-63
2024/01/28 13:07:46;;;;;;;;;;;18.80;48.30;;;;;;7386341;19;2146;-64
2024/01/28 13:10:12;;;;;;;;;;;18.80;48.20;;;;;;7396551;19;2589;-62
2024/01/28 13:12:38;;;;;;;;;;;18.80;48.30;;;;;;7392185;19;2201;-64
2024/01/28 13:15:10;;;;;;;;;;;18.80;48.30;;;;;;7396899;19;2235;-63
2024/01/28 13:17:36;;;;;;;;;;;18.70;48.40;;;;;;7391955;19;2108;-63
2024/01/28 13:20:02;;;;;;;;;;;18.70;48.30;;;;;;7394130;19;1999;-62
2024/01/28 13:22:28;;;;;;;;;;;18.70;48.40;;;;;;7393310;19;1619;-62
2024/01/28 13:24:53;;;;;;;;;;;18.70;48.50;;;;;;7396773;19;1374;-62
2024/01/28 13:27:19;;;;;;;;;;;18.70;48.60;;;;;;7397059;19;1845;-62
2024/01/28 13:29:45;;;;;;;;;;;18.60;48.60;;;;;;7394335;19;1532;-62
2024/01/28 13:32:10;;;;;;;;;;;18.70;48.70;;;;;;7394752;19;1624;-62
2024/01/28 13:34:36;;;;;;;;;;;18.70;48.70;;;;;;7392433;19;1298;-62
2024/01/28 13:37:02;;;;;;;;;;;18.70;48.70;;;;;;7394380;19;1498;-63
2024/01/28 13:39:28;;;;;;;;;;;18.70;48.70;;;;;;7390420;19;1073;-62
2024/01/28 13:41:53;;;;;;;;;;;18.70;48.60;;;;;;7391308;19;812;-62
2024/01/28 13:44:19;;;;;;;;;;;18.70;48.50;;;;;;7396402;19;1530;-62
2024/01/28 13:46:44;;;;;;;;;;;18.80;48.60;;;;;;7395125;19;1624;-62
2024/01/28 13:49:09;;;;;;;;;;;18.80;48.50;;;;;;7395153;19;1857;-62
2024/01/28 13:51:35;;;;;;;;;;;18.90;48.50;;;;;;7394905;19;1627;-62
2024/01/28 13:54:00;;;;;;;;;;;18.90;48.30;;;;;;7392262;19;851;-62
2024/01/28 13:56:26;;;;;;;;;;;18.90;48.20;;;;;;7394040;19;1687;-62
2024/01/28 13:58:52;;;;;;;;;;;18.90;48.00;;;;;;7395030;19;1519;-62
2024/01/28 14:01:18;;;;;;;;;;;18.90;47.90;;;;;;7394552;19;1305;-62
2024/01/28 14:03:44;;;;;;;;;;;18.90;47.90;;;;;;7392869;19;772;-62
2024/01/28 14:06:09;;;;;;;;;;;18.90;48.00;;;;;;7391561;19;2073;-62
2024/01/28 14:08:35;;;;;;;;;;;18.90;48.00;;;;;;7392818;19;1855;-62
2024/01/28 14:11:00;;;;;;;;;;;18.90;48.10;;;;;;7398418;19;3339;-62
2024/01/28 14:13:26;;;;;;;;;;;18.90;48.10;;;;;;7400140;19;1628;-62
2024/01/28 14:15:51;;;;;;;;;;;18.90;48.10;;;;;;7399424;19;1783;-62
2024/01/28 14:18:17;;;;;;;;;;;18.90;48.20;;;;;;7400976;19;1971;-62
2024/01/28 14:20:42;;;;;;;;;;;18.90;48.20;;;;;;7402287;19;1699;-62